Time;durP1;ratioP1;P1;durP2;ratioP2;P2;SDS_P1;SDS_P2;PMS_P1;PMS_P2;Temp;Humidity;BMP_temperature;BMP_pressure;BME280_temperature;BME280_humidity;BME280_pressure;Samples;Min_cycle;Max_cycle;Signal;HPM_P1;HPM_P2
2022/11/01 00:01:54;;;;;;;23.90;11.47;;;16.60;82.80;;;;;;5049275;28;20557;-82
2022/11/01 00:04:23;;;;;;;22.17;10.40;;;16.60;82.70;;;;;;5050906;28;20787;-82
2022/11/01 00:06:53;;;;;;;22.00;10.50;;;16.60;82.70;;;;;;5045175;28;20227;-81
2022/11/01 00:09:22;;;;;;;21.30;9.93;;;16.60;82.60;;;;;;5037285;28;20254;-82
2022/11/01 00:11:50;;;;;;;25.50;11.27;;;16.60;82.70;;;;;;5043734;28;20255;-81
2022/11/01 00:14:19;;;;;;;26.33;10.17;;;16.60;82.80;;;;;;5047771;28;20267;-82
2022/11/01 00:16:48;;;;;;;21.23;10.67;;;16.60;82.70;;;;;;5048837;28;20682;-82
2022/11/01 00:19:17;;;;;;;18.87;10.60;;;16.50;82.70;;;;;;5047509;28;20219;-80
2022/11/01 00:21:45;;;;;;;20.13;10.03;;;16.60;82.80;;;;;;5042779;28;20210;-82
2022/11/01 00:24:15;;;;;;;22.97;10.30;;;16.50;82.70;;;;;;5044974;28;20227;-82
2022/11/01 00:26:43;;;;;;;24.90;9.80;;;16.50;82.70;;;;;;5040489;28;20234;-81
2022/11/01 00:29:12;;;;;;;20.57;10.07;;;16.40;82.90;;;;;;5042347;28;20210;-82
2022/11/01 00:31:40;;;;;;;18.53;9.17;;;16.50;82.70;;;;;;5043830;28;20190;-82
2022/11/01 00:34:09;;;;;;;23.90;9.93;;;16.50;82.50;;;;;;5052778;28;20227;-81
2022/11/01 00:36:37;;;;;;;23.80;9.97;;;16.50;82.40;;;;;;5046656;28;20600;-81
2022/11/01 00:39:06;;;;;;;21.47;9.20;;;16.40;82.20;;;;;;5041833;28;20207;-82
2022/11/01 00:41:36;;;;;;;16.53;8.50;;;16.40;82.10;;;;;;5046582;28;20590;-81
2022/11/01 00:44:04;;;;;;;21.60;10.60;;;16.40;81.90;;;;;;5040929;28;20199;-80
2022/11/01 00:46:33;;;;;;;16.70;9.03;;;16.40;81.80;;;;;;5043021;28;20552;-82
2022/11/01 00:49:01;;;;;;;23.40;8.60;;;16.30;81.70;;;;;;5046816;28;20580;-82
2022/11/01 00:51:30;;;;;;;18.67;8.87;;;16.30;81.60;;;;;;5041740;28;20191;-81
2022/11/01 00:53:58;;;;;;;19.63;8.57;;;16.30;81.50;;;;;;5049180;28;20285;-81
2022/11/01 00:56:26;;;;;;;20.30;9.23;;;16.30;81.30;;;;;;5045001;28;20253;-79
2022/11/01 00:58:56;;;;;;;14.00;7.90;;;16.30;81.30;;;;;;5046997;28;20244;-78
2022/11/01 01:01:24;;;;;;;16.63;8.53;;;16.20;81.10;;;;;;5044722;28;20206;-82
2022/11/01 01:03:53;;;;;;;20.87;8.03;;;16.20;81.10;;;;;;5047654;28;20231;-81
2022/11/01 01:06:21;;;;;;;19.30;9.30;;;16.20;81.10;;;;;;5038956;28;20249;-81
2022/11/01 01:08:49;;;;;;;18.93;8.37;;;16.20;80.90;;;;;;5044168;28;20222;-81
2022/11/01 01:11:18;;;;;;;15.57;8.10;;;16.20;80.90;;;;;;5043392;28;20294;-81
2022/11/01 01:13:46;;;;;;;16.97;8.77;;;16.20;80.80;;;;;;5035812;28;20330;-81
2022/11/01 01:16:16;;;;;;;15.27;7.47;;;16.20;80.80;;;;;;5040092;28;20203;-81
2022/11/01 01:18:44;;;;;;;16.73;7.70;;;16.20;80.60;;;;;;5048146;28;20199;-81
2022/11/01 01:21:14;;;;;;;16.50;7.60;;;16.20;80.60;;;;;;5046628;28;20656;-81
2022/11/01 01:23:43;;;;;;;13.83;6.73;;;16.10;80.50;;;;;;5045569;28;20246;-81
2022/11/01 01:26:11;;;;;;;19.13;7.10;;;16.10;80.50;;;;;;5048420;28;20203;-82
2022/11/01 01:28:39;;;;;;;14.83;7.60;;;16.10;80.50;;;;;;5039024;28;20286;-83
2022/11/01 01:31:13;;;;;;;17.63;7.17;;;16.10;80.50;;;;;;5042224;28;20664;-81
2022/11/01 01:33:43;;;;;;;17.43;6.93;;;16.10;80.50;;;;;;5051522;28;20231;-81
2022/11/01 01:36:11;;;;;;;17.27;6.93;;;16.10;80.40;;;;;;5042234;28;20200;-81
2022/11/01 01:38:39;;;;;;;18.40;6.73;;;16.10;80.40;;;;;;5043931;28;20704;-81
2022/11/01 01:43:53;;;;;;;13.57;6.50;;;16.00;80.30;;;;;;5045125;28;20195;-81
2022/11/01 01:46:21;;;;;;;13.47;6.17;;;16.00;80.20;;;;;;5048115;28;20253;-80
2022/11/01 01:48:56;;;;;;;12.83;6.77;;;16.00;80.20;;;;;;5047870;28;20198;-81
2022/11/01 01:51:27;;;;;;;17.77;6.33;;;16.00;80.20;;;;;;5041813;28;20195;-80
2022/11/01 01:53:58;;;;;;;12.73;5.80;;;16.00;80.20;;;;;;5044278;28;20191;-80
2022/11/01 01:56:31;;;;;;;12.23;5.63;;;16.00;80.20;;;;;;5042482;28;20712;-81
2022/11/01 01:59:03;;;;;;;12.30;6.20;;;16.00;80.10;;;;;;5039438;28;20640;-80
2022/11/01 02:01:32;;;;;;;11.73;6.00;;;16.00;80.10;;;;;;5038653;28;20385;-81
2022/11/01 02:04:03;;;;;;;15.07;5.93;;;15.90;80.10;;;;;;5052766;28;20219;-82
2022/11/01 02:06:33;;;;;;;13.33;6.00;;;15.90;80.00;;;;;;5044843;28;20195;-81
2022/11/01 02:09:04;;;;;;;17.03;6.20;;;15.90;80.70;;;;;;5043846;28;20268;-81
2022/11/01 02:11:32;;;;;;;16.03;5.87;;;15.90;79.80;;;;;;5044159;28;20277;-81
2022/11/01 02:14:01;;;;;;;14.40;6.93;;;15.90;79.70;;;;;;5046628;28;20194;-82
2022/11/01 02:16:46;;;;;;;16.97;6.30;;;15.90;79.70;;;;;;5041261;28;20205;-81
2022/11/01 02:19:51;;;;;;;13.50;6.30;;;15.80;79.60;;;;;;5051778;28;20273;-82
2022/11/01 02:22:31;;;;;;;13.43;6.80;;;15.80;79.60;;;;;;5040563;28;20628;-81
2022/11/01 02:25:09;;;;;;;13.57;6.57;;;15.80;79.60;;;;;;5042980;28;20238;-81
2022/11/01 02:27:57;;;;;;;13.07;6.70;;;15.80;79.50;;;;;;5040715;28;20202;-82
2022/11/01 02:30:35;;;;;;;13.83;6.17;;;15.80;79.50;;;;;;5037753;28;20191;-81
2022/11/01 02:33:15;;;;;;;14.83;6.80;;;15.70;79.40;;;;;;5039720;28;20248;-81
2022/11/01 02:35:53;;;;;;;14.50;6.00;;;15.70;79.20;;;;;;5046157;28;20190;-81
2022/11/01 02:38:27;;;;;;;13.47;6.57;;;15.70;79.20;;;;;;5037108;28;20197;-81
2022/11/01 02:41:03;;;;;;;13.70;6.27;;;15.70;79.20;;;;;;5045867;28;20199;-81
2022/11/01 02:43:41;;;;;;;13.80;6.13;;;15.60;79.10;;;;;;5038474;28;20284;-80
2022/11/01 02:48:59;;;;;;;15.97;6.70;;;15.60;79.10;;;;;;5038116;28;20219;-82
2022/11/01 02:51:30;;;;;;;11.90;6.67;;;15.50;79.10;;;;;;5041844;28;20615;-81
2022/11/01 02:54:01;;;;;;;12.27;6.47;;;15.50;79.10;;;;;;5042090;28;20237;-82
2022/11/01 02:56:30;;;;;;;12.77;7.17;;;15.40;79.20;;;;;;5041073;28;20322;-81
2022/11/01 02:58:59;;;;;;;13.57;6.47;;;15.40;79.30;;;;;;5047932;28;20249;-82
2022/11/01 03:01:31;;;;;;;13.53;6.67;;;15.40;79.40;;;;;;5042074;28;20214;-81
2022/11/01 03:04:02;;;;;;;11.27;6.87;;;15.30;79.30;;;;;;5043029;28;20227;-82
2022/11/01 03:06:34;;;;;;;11.73;6.37;;;15.30;79.60;;;;;;5044241;28;20199;-82
2022/11/01 03:09:06;;;;;;;13.10;6.47;;;15.30;79.60;;;;;;5050261;28;20282;-82
2022/11/01 03:11:42;;;;;;;13.53;6.87;;;15.20;79.50;;;;;;5041992;28;20246;-81
2022/11/01 03:14:23;;;;;;;13.77;6.50;;;15.10;79.70;;;;;;5049152;28;20195;-82
2022/11/01 03:16:59;;;;;;;14.43;6.97;;;15.10;79.80;;;;;;5050193;28;20631;-81
2022/11/01 03:19:39;;;;;;;15.30;7.30;;;15.10;80.00;;;;;;5048037;28;20244;-82
2022/11/01 03:22:11;;;;;;;19.20;6.73;;;15.00;80.00;;;;;;5052232;28;20282;-79
2022/11/01 03:24:49;;;;;;;14.40;7.00;;;15.00;80.20;;;;;;5047840;28;20868;-80
2022/11/01 03:27:26;;;;;;;16.03;6.73;;;15.00;80.10;;;;;;5044370;28;20194;-81
2022/11/01 03:30:00;;;;;;;16.03;6.63;;;14.90;80.10;;;;;;5051349;28;20278;-81
2022/11/01 03:32:34;;;;;;;14.73;6.77;;;14.90;80.30;;;;;;5051207;28;20201;-81
2022/11/01 03:35:05;;;;;;;15.57;7.13;;;14.90;80.40;;;;;;5050960;28;20245;-81
2022/11/01 03:37:34;;;;;;;17.03;7.37;;;14.80;80.40;;;;;;5046312;28;20277;-81
2022/11/01 03:40:06;;;;;;;13.43;7.03;;;14.80;80.50;;;;;;5048666;28;20199;-81
2022/11/01 03:42:37;;;;;;;18.03;7.00;;;14.70;80.50;;;;;;5045424;28;20195;-81
2022/11/01 03:45:09;;;;;;;15.95;7.75;;;14.70;80.60;;;;;;5045641;28;20445;-81
2022/11/01 03:47:38;;;;;;;15.07;7.33;;;14.70;81.10;;;;;;5041393;28;20287;-81
2022/11/01 03:50:15;;;;;;;15.60;7.27;;;14.70;81.20;;;;;;5044849;28;20199;-81
2022/11/01 03:52:43;;;;;;;18.50;7.47;;;14.60;81.10;;;;;;5044423;28;20261;-81
2022/11/01 03:55:20;;;;;;;16.17;7.47;;;14.60;81.10;;;;;;5046056;28;20230;-81
2022/11/01 03:57:50;;;;;;;12.17;6.50;;;14.60;81.00;;;;;;5046135;28;20198;-82
2022/11/01 04:00:20;;;;;;;15.37;7.13;;;14.50;81.10;;;;;;5050756;28;20254;-80
2022/11/01 04:02:49;;;;;;;14.43;7.53;;;14.60;81.10;;;;;;5002524;28;20198;-81
2022/11/01 04:05:22;;;;;;;18.67;8.50;;;14.50;81.30;;;;;;5043126;28;20262;-81
2022/11/01 04:07:51;;;;;;;16.00;6.87;;;14.50;81.20;;;;;;5047404;28;20202;-81
2022/11/01 04:10:20;;;;;;;15.73;7.13;;;14.50;81.20;;;;;;5048394;28;20612;-79
2022/11/01 04:12:49;;;;;;;13.80;7.37;;;14.50;81.20;;;;;;5048420;28;20659;-82
2022/11/01 04:21:01;;;;;;;16.50;8.53;;;14.40;81.10;;;;;;5046137;28;20230;-82
2022/11/01 04:23:29;;;;;;;14.80;6.77;;;14.40;81.00;;;;;;5051037;28;20195;-81
2022/11/01 04:25:58;;;;;;;15.90;7.57;;;14.40;81.00;;;;;;5048028;28;20230;-80
2022/11/01 04:28:26;;;;;;;15.87;7.50;;;14.40;81.00;;;;;;5038506;28;20309;-81
2022/11/01 04:30:55;;;;;;;19.33;8.03;;;14.40;81.00;;;;;;5042687;28;20203;-81
2022/11/01 04:33:24;;;;;;;15.70;7.20;;;14.40;81.10;;;;;;5050873;28;20203;-81
2022/11/01 04:35:52;;;;;;;20.30;8.37;;;14.40;81.20;;;;;;5048371;28;20694;-81
2022/11/01 04:38:22;;;;;;;19.20;8.00;;;14.40;81.20;;;;;;5049353;28;20599;-82
2022/11/01 04:40:50;;;;;;;13.77;7.67;;;14.40;81.20;;;;;;5047793;28;20224;-81
2022/11/01 04:43:21;;;;;;;15.10;7.30;;;14.40;81.20;;;;;;5047403;28;20256;-81
2022/11/01 04:45:54;;;;;;;15.67;8.43;;;14.40;81.10;;;;;;5046922;28;20873;-81
2022/11/01 04:48:23;;;;;;;14.53;7.40;;;14.40;81.10;;;;;;5046487;28;20198;-81
2022/11/01 04:50:51;;;;;;;17.23;8.17;;;14.40;81.10;;;;;;5047150;28;20223;-82
2022/11/01 04:53:20;;;;;;;17.27;7.83;;;14.40;81.80;;;;;;5044166;28;20220;-81
2022/11/01 04:55:49;;;;;;;16.80;7.57;;;14.40;81.10;;;;;;5051404;28;20227;-82
2022/11/01 04:58:18;;;;;;;17.17;8.13;;;14.40;81.10;;;;;;5046138;28;20258;-80
2022/11/01 05:00:46;;;;;;;19.53;8.27;;;14.40;81.10;;;;;;5040826;28;20683;-81
2022/11/01 05:03:14;;;;;;;17.17;8.73;;;14.30;81.10;;;;;;5043994;28;20746;-83
2022/11/01 05:05:43;;;;;;;14.10;8.13;;;14.30;81.10;;;;;;5049709;28;20616;-81
2022/11/01 05:08:12;;;;;;;17.37;8.20;;;14.30;81.10;;;;;;5043773;28;20222;-81
2022/11/01 05:10:42;;;;;;;18.83;8.43;;;14.30;81.30;;;;;;5051295;28;20289;-81
2022/11/01 05:13:13;;;;;;;17.97;8.30;;;14.20;82.20;;;;;;5038456;28;20203;-82
2022/11/01 05:15:41;;;;;;;16.37;8.13;;;14.20;81.30;;;;;;5038273;28;20248;-81
2022/11/01 05:18:30;;;;;;;19.47;9.10;;;14.20;81.50;;;;;;5042750;28;20199;-83
2022/11/01 05:20:58;;;;;;;19.97;8.93;;;14.20;81.40;;;;;;5046625;28;20272;-82
2022/11/01 05:23:26;;;;;;;20.53;9.30;;;14.20;81.40;;;;;;5040690;28;20565;-81
2022/11/01 05:25:54;;;;;;;22.47;9.60;;;14.20;81.40;;;;;;5044873;28;20773;-81
2022/11/01 05:28:24;;;;;;;16.87;8.17;;;14.20;81.40;;;;;;5046505;28;20613;-81
2022/11/01 05:30:52;;;;;;;18.30;8.67;;;14.20;81.40;;;;;;5039607;28;20223;-82
2022/11/01 05:33:21;;;;;;;20.33;9.03;;;14.20;81.40;;;;;;5038892;28;20223;-82
2022/11/01 05:35:49;;;;;;;20.00;8.73;;;14.20;81.50;;;;;;5039987;28;20716;-82
2022/11/01 05:38:17;;;;;;;24.83;8.77;;;14.20;81.40;;;;;;5047802;28;20243;-82
2022/11/01 05:40:46;;;;;;;16.80;8.83;;;14.30;81.70;;;;;;5047243;28;20231;-83
2022/11/01 05:43:14;;;;;;;18.10;9.20;;;14.20;81.90;;;;;;5048896;28;20249;-81
2022/11/01 05:45:44;;;;;;;24.23;8.93;;;14.20;81.80;;;;;;5035673;28;20660;-82
2022/11/01 05:48:12;;;;;;;18.57;8.70;;;14.30;81.90;;;;;;5044871;28;20203;-82
2022/11/01 05:50:40;;;;;;;19.73;9.37;;;14.30;81.90;;;;;;5050686;28;20671;-81
2022/11/01 05:53:09;;;;;;;17.73;8.60;;;14.30;82.00;;;;;;5044878;28;20188;-82
2022/11/01 05:55:38;;;;;;;22.23;8.73;;;14.30;82.20;;;;;;5051426;28;20652;-83
2022/11/01 05:58:06;;;;;;;17.47;7.73;;;14.30;82.20;;;;;;5052947;28;20194;-80
2022/11/01 06:00:35;;;;;;;15.60;6.80;;;14.30;82.50;;;;;;5043763;28;20616;-81
2022/11/01 06:03:05;;;;;;;16.70;7.57;;;14.30;82.40;;;;;;5042232;28;20219;-82
2022/11/01 06:05:35;;;;;;;18.00;7.70;;;14.30;82.30;;;;;;5038785;28;20227;-82
2022/11/01 06:08:04;;;;;;;15.53;7.70;;;14.40;82.40;;;;;;5039163;28;20234;-83
2022/11/01 06:10:33;;;;;;;15.73;8.27;;;14.50;82.40;;;;;;5048426;28;20229;-83
2022/11/01 06:13:01;;;;;;;18.37;7.53;;;14.50;82.40;;;;;;5049740;28;20260;-83
2022/11/01 06:15:30;;;;;;;17.90;8.23;;;14.50;82.30;;;;;;5049488;28;20282;-81
2022/11/01 06:18:05;;;;;;;21.63;9.00;;;14.60;82.40;;;;;;5048131;28;20437;-81
2022/11/01 06:20:35;;;;;;;14.60;8.40;;;14.60;82.40;;;;;;5050117;28;20214;-82
2022/11/01 06:23:09;;;;;;;19.87;7.60;;;14.70;82.50;;;;;;5041909;28;20257;-81
2022/11/01 06:25:38;;;;;;;17.10;7.17;;;14.70;82.40;;;;;;5042900;28;20223;-82
2022/11/01 06:28:07;;;;;;;15.93;7.93;;;14.80;82.20;;;;;;5045565;28;20203;-82
2022/11/01 06:30:37;;;;;;;16.00;8.43;;;14.80;82.20;;;;;;5045801;28;20206;-81
2022/11/01 06:33:08;;;;;;;17.27;7.80;;;14.90;82.10;;;;;;5043752;28;20195;-82
2022/11/01 06:35:37;;;;;;;15.77;8.00;;;14.90;81.90;;;;;;5047759;28;20229;-81
2022/11/01 06:38:06;;;;;;;17.23;7.97;;;15.00;81.80;;;;;;5042757;28;20198;-81
2022/11/01 06:40:35;;;;;;;16.27;7.70;;;15.10;81.80;;;;;;5043950;28;20199;-81
2022/11/01 06:43:06;;;;;;;20.03;8.20;;;15.20;81.80;;;;;;5050433;28;20250;-82
2022/11/01 06:45:34;;;;;;;16.43;8.30;;;15.30;81.80;;;;;;5047307;28;20239;-82
2022/11/01 06:48:03;;;;;;;19.58;8.60;;;15.30;81.70;;;;;;5049106;28;20421;-82
2022/11/01 06:50:33;;;;;;;21.90;8.90;;;15.40;81.70;;;;;;5043136;28;20196;-82
2022/11/01 06:53:02;;;;;;;19.93;8.30;;;15.50;81.40;;;;;;5052889;28;20183;-82
2022/11/01 06:55:30;;;;;;;18.17;8.13;;;15.60;81.40;;;;;;5058480;28;20612;-85
2022/11/01 06:58:00;;;;;;;17.63;7.67;;;15.70;81.00;;;;;;5052923;28;20191;-83
2022/11/01 07:00:31;;;;;;;16.73;8.07;;;15.70;80.70;;;;;;5051771;28;20202;-82
2022/11/01 07:03:00;;;;;;;17.87;7.77;;;15.80;80.70;;;;;;5046575;28;20223;-82
2022/11/01 07:05:29;;;;;;;16.65;8.48;;;15.80;80.40;;;;;;5049587;28;20794;-84
2022/11/01 07:08:07;;;;;;;17.77;7.63;;;15.90;80.20;;;;;;5040891;28;20256;-83
2022/11/01 07:10:37;;;;;;;16.83;7.87;;;16.00;80.10;;;;;;5044768;28;20226;-84
2022/11/01 07:13:06;;;;;;;19.27;8.53;;;16.00;80.00;;;;;;5050185;28;20210;-84
2022/11/01 07:15:35;;;;;;;19.80;8.57;;;16.10;79.90;;;;;;5049470;28;20199;-82
2022/11/01 07:18:07;;;;;;;17.30;8.37;;;16.20;79.90;;;;;;5044651;28;20704;-82
2022/11/01 07:20:40;;;;;;;17.23;7.97;;;16.30;79.60;;;;;;5043982;28;20196;-81
2022/11/01 07:23:12;;;;;;;17.77;8.10;;;16.30;79.50;;;;;;5038924;28;20206;-82
2022/11/01 07:25:41;;;;;;;17.50;8.37;;;16.40;79.40;;;;;;5042726;28;20575;-83
2022/11/01 07:28:10;;;;;;;17.63;8.03;;;16.50;78.80;;;;;;5047065;28;20270;-83
2022/11/01 07:30:39;;;;;;;19.63;8.57;;;16.50;78.30;;;;;;5042408;28;20196;-82
2022/11/01 07:33:08;;;;;;;15.93;7.30;;;16.60;78.40;;;;;;5037782;28;20198;-81
2022/11/01 07:35:36;;;;;;;17.93;8.90;;;16.70;78.40;;;;;;5039626;28;20227;-81
2022/11/01 07:38:04;;;;;;;17.93;8.37;;;16.70;77.70;;;;;;5044244;28;20282;-81
2022/11/01 07:40:41;;;;;;;14.10;7.77;;;16.80;77.80;;;;;;5044093;28;20195;-84
2022/11/01 07:43:10;;;;;;;15.87;8.17;;;16.80;76.80;;;;;;5048288;28;20257;-83
2022/11/01 07:45:38;;;;;;;14.20;7.30;;;16.90;76.50;;;;;;5041558;28;20558;-82
2022/11/01 07:48:09;;;;;;;16.27;7.33;;;16.90;76.50;;;;;;5052789;28;20219;-83
2022/11/01 07:50:39;;;;;;;17.30;7.47;;;17.00;76.50;;;;;;5043337;28;20256;-80
2022/11/01 07:53:10;;;;;;;16.07;7.73;;;17.00;76.40;;;;;;5041708;28;20658;-81
2022/11/01 07:55:40;;;;;;;16.63;7.20;;;17.10;76.40;;;;;;5038908;28;20200;-83
2022/11/01 07:58:09;;;;;;;16.20;7.57;;;17.20;76.50;;;;;;5051359;28;20195;-82
2022/11/01 08:00:39;;;;;;;18.77;8.80;;;17.30;76.10;;;;;;5040103;28;20199;-83
2022/11/01 08:03:09;;;;;;;15.37;7.77;;;17.30;74.80;;;;;;5040605;28;20365;-84
2022/11/01 08:05:38;;;;;;;18.10;8.50;;;17.30;74.80;;;;;;5030151;28;20279;-83
2022/11/01 08:08:07;;;;;;;16.57;7.50;;;17.30;74.50;;;;;;5034474;28;20203;-81
2022/11/01 08:10:36;;;;;;;13.53;7.70;;;17.40;74.60;;;;;;5041479;28;20879;-81
2022/11/01 08:13:13;;;;;;;19.53;8.10;;;17.50;74.70;;;;;;5043624;28;20202;-81
2022/11/01 08:15:41;;;;;;;18.87;8.73;;;17.60;74.70;;;;;;5043393;28;20715;-81
2022/11/01 08:18:10;;;;;;;16.60;7.37;;;17.60;74.30;;;;;;5045175;28;20772;-82
2022/11/01 08:20:39;;;;;;;14.40;7.73;;;17.70;73.90;;;;;;5050995;28;20203;-81
2022/11/01 08:23:08;;;;;;;16.13;8.00;;;17.70;74.00;;;;;;5041768;28;20215;-82
2022/11/01 08:25:36;;;;;;;16.87;8.57;;;17.80;73.90;;;;;;5047213;28;20647;-82
2022/11/01 08:28:08;;;;;;;17.73;8.07;;;17.90;73.50;;;;;;5047210;28;20199;-81
2022/11/01 08:30:38;;;;;;;16.70;8.23;;;17.90;73.20;;;;;;5045712;28;20200;-83
2022/11/01 08:33:06;;;;;;;17.20;8.73;;;18.00;73.10;;;;;;5042121;28;20248;-82
2022/11/01 08:35:35;;;;;;;15.47;7.80;;;18.00;73.30;;;;;;5055413;28;20199;-83
2022/11/01 08:38:03;;;;;;;21.93;7.77;;;18.10;73.10;;;;;;5048633;28;20199;-84
2022/11/01 08:40:34;;;;;;;21.57;8.53;;;18.20;72.80;;;;;;5053141;28;20203;-84
2022/11/01 08:43:03;;;;;;;17.23;8.07;;;18.20;72.40;;;;;;5045911;28;20244;-82
2022/11/01 08:45:33;;;;;;;17.70;8.00;;;18.30;72.20;;;;;;5058424;28;20206;-82
2022/11/01 08:48:03;;;;;;;15.57;7.53;;;18.40;72.30;;;;;;5053882;28;20208;-84
2022/11/01 08:50:33;;;;;;;20.70;8.67;;;18.50;72.30;;;;;;5040108;28;20583;-82
2022/11/01 08:53:04;;;;;;;16.03;7.63;;;18.50;72.00;;;;;;5050076;28;20191;-80
2022/11/01 08:55:33;;;;;;;12.73;6.77;;;18.60;71.70;;;;;;5046170;28;20195;-82
2022/11/01 08:58:05;;;;;;;15.37;6.90;;;18.60;71.00;;;;;;5043577;28;20283;-82
2022/11/01 09:00:36;;;;;;;17.00;6.50;;;18.70;71.00;;;;;;5045883;28;20609;-82
2022/11/01 09:03:04;;;;;;;20.43;7.57;;;18.80;70.90;;;;;;5046848;28;20203;-84
2022/11/01 09:05:33;;;;;;;16.00;7.30;;;18.90;70.50;;;;;;5049320;28;20232;-82
2022/11/01 09:08:02;;;;;;;17.37;7.40;;;19.00;70.20;;;;;;5047265;28;20282;-82
2022/11/01 09:10:31;;;;;;;13.30;6.57;;;19.10;69.80;;;;;;5050745;28;20225;-82
2022/11/01 09:13:00;;;;;;;16.33;7.53;;;19.10;69.70;;;;;;5051275;28;20241;-83
2022/11/01 09:15:29;;;;;;;17.50;7.63;;;19.20;69.60;;;;;;5044741;28;20253;-82
2022/11/01 09:18:04;;;;;;;12.83;6.60;;;19.30;69.50;;;;;;5043362;28;20199;-82
2022/11/01 09:20:32;;;;;;;15.85;5.45;;;19.40;69.00;;;;;;5040840;28;20220;-84
2022/11/01 09:23:00;;;;;;;12.05;5.43;;;19.40;68.20;;;;;;5041472;28;21275;-82
2022/11/01 09:25:29;;;;;;;14.10;5.77;;;19.50;67.90;;;;;;5043909;28;20632;-84
2022/11/01 09:28:00;;;;;;;13.23;5.83;;;19.60;67.60;;;;;;5042019;28;20199;-85
2022/11/01 09:30:31;;;;;;;12.25;5.68;;;19.70;67.50;;;;;;5050420;28;20203;-84
2022/11/01 09:33:04;;;;;;;17.95;5.80;;;19.80;67.50;;;;;;5051719;28;20206;-82
2022/11/01 09:35:33;;;;;;;12.43;5.90;;;19.80;67.20;;;;;;5044821;28;20227;-82
2022/11/01 09:38:03;;;;;;;15.00;6.60;;;19.90;67.10;;;;;;5051056;28;20199;-81
2022/11/01 09:40:39;;;;;;;17.85;6.05;;;20.00;66.80;;;;;;5052028;28;20203;-79
2022/11/01 09:43:09;;;;;;;12.18;5.50;;;20.00;66.50;;;;;;5053642;28;20206;-83
2022/11/01 09:45:38;;;;;;;13.55;6.15;;;20.10;66.50;;;;;;5045358;28;20674;-82
2022/11/01 09:48:08;;;;;;;17.40;6.15;;;20.20;66.40;;;;;;5058199;28;20209;-83
2022/11/01 09:50:38;;;;;;;16.42;6.10;;;20.30;66.60;;;;;;5047825;28;20227;-77
2022/11/01 09:53:13;;;;;;;15.98;6.82;;;20.40;66.20;;;;;;5047955;28;20242;-82
2022/11/01 09:55:48;;;;;;;15.43;5.53;;;20.40;65.20;;;;;;5052344;28;20194;-83
2022/11/01 09:58:25;;;;;;;15.57;6.38;;;20.50;65.50;;;;;;5065075;28;20212;-85
2022/11/01 10:01:04;;;;;;;15.27;5.20;;;20.50;65.50;;;;;;5042320;28;20200;-83
2022/11/01 10:03:51;;;;;;;14.13;5.80;;;20.60;65.30;;;;;;5035415;28;20332;-82
2022/11/01 10:06:23;;;;;;;14.75;5.55;;;20.70;66.50;;;;;;5042936;28;20282;-82
2022/11/01 10:09:01;;;;;;;11.55;5.45;;;20.80;65.80;;;;;;5041765;28;20827;-82
2022/11/01 10:11:55;;;;;;;15.57;5.57;;;20.90;65.40;;;;;;5049004;28;20224;-82
2022/11/01 10:14:48;;;;;;;10.07;5.38;;;20.90;64.80;;;;;;5036154;28;20219;-83
2022/11/01 10:17:23;;;;;;;13.50;5.50;;;21.00;65.20;;;;;;5046726;28;20222;-84
2022/11/01 10:19:53;;;;;;;9.00;4.93;;;21.10;65.40;;;;;;5041415;28;20258;-83
2022/11/01 10:22:29;;;;;;;17.83;6.72;;;21.10;63.50;;;;;;5035833;28;20282;-83
2022/11/01 10:25:01;;;;;;;13.57;6.03;;;21.20;63.80;;;;;;5050366;28;20273;-84
2022/11/01 10:27:37;;;;;;;15.25;5.45;;;21.20;64.20;;;;;;5052217;28;20264;-84
2022/11/01 10:30:08;;;;;;;14.00;5.45;;;21.30;63.50;;;;;;5054034;28;21707;-85
2022/11/01 10:32:41;;;;;;;10.07;5.53;;;21.30;63.20;;;;;;5044249;28;20640;-84
2022/11/01 10:35:17;;;;;;;12.05;5.68;;;21.40;63.00;;;;;;5053137;28;20191;-84
2022/11/01 10:37:53;;;;;;;13.70;5.90;;;21.50;63.10;;;;;;5047869;28;20248;-84
2022/11/01 10:40:46;;;;;;;13.27;5.70;;;21.50;63.40;;;;;;5049569;28;20307;-82
2022/11/01 10:43:18;;;;;;;11.27;5.88;;;21.60;63.10;;;;;;5045015;28;20246;-84
2022/11/01 10:45:49;;;;;;;18.17;5.43;;;21.60;63.10;;;;;;5055701;28;20617;-84
2022/11/01 10:48:26;;;;;;;16.10;5.80;;;21.70;63.40;;;;;;5043174;28;20203;-84
2022/11/01 10:50:59;;;;;;;17.88;6.20;;;21.80;63.00;;;;;;5054227;28;20198;-85
2022/11/01 10:53:30;;;;;;;11.05;5.63;;;21.80;62.40;;;;;;5046317;28;20199;-85
2022/11/01 10:56:04;;;;;;;15.40;5.75;;;21.90;62.20;;;;;;5053274;28;21013;-84
2022/11/01 10:58:39;;;;;;;13.30;5.75;;;21.90;62.60;;;;;;5045107;28;20619;-85
2022/11/01 11:01:12;;;;;;;14.00;5.60;;;22.00;62.20;;;;;;5052312;28;20202;-85
2022/11/01 11:03:43;;;;;;;16.83;5.40;;;22.00;62.50;;;;;;5043983;28;20234;-86
2022/11/01 11:06:15;;;;;;;11.40;5.50;;;22.10;62.40;;;;;;5044907;28;20192;-85
2022/11/01 11:08:49;;;;;;;11.73;5.28;;;22.10;62.20;;;;;;5045748;28;20210;-84
2022/11/01 11:11:24;;;;;;;13.65;6.07;;;22.20;62.30;;;;;;5052749;28;20206;-82
2022/11/01 11:13:56;;;;;;;9.98;4.97;;;22.20;61.60;;;;;;5042916;28;20570;-82
2022/11/01 11:16:32;;;;;;;16.02;5.07;;;22.20;61.80;;;;;;5058849;28;20547;-82
2022/11/01 11:19:18;;;;;;;12.35;5.00;;;22.30;61.80;;;;;;5046808;28;20851;-81
2022/11/01 11:21:51;;;;;;;13.18;5.60;;;22.40;62.00;;;;;;5058330;28;20195;-83
2022/11/01 11:24:22;;;;;;;13.75;5.47;;;22.40;62.10;;;;;;5040788;28;20616;-79
2022/11/01 11:26:52;;;;;;;10.50;4.88;;;22.40;61.40;;;;;;5054231;28;20200;-85
2022/11/01 11:29:36;;;;;;;15.60;5.75;;;22.50;61.50;;;;;;5051409;28;20195;-84
2022/11/01 11:32:12;;;;;;;14.15;5.22;;;22.50;61.60;;;;;;5050132;28;20195;-82
2022/11/01 11:34:42;;;;;;;14.35;5.35;;;22.60;61.90;;;;;;5038338;28;20202;-84
2022/11/01 11:37:20;;;;;;;21.27;5.50;;;22.60;61.40;;;;;;5039615;28;20293;-84
2022/11/01 11:40:16;;;;;;;13.63;4.93;;;22.70;61.30;;;;;;5048945;28;20199;-81
2022/11/01 11:42:45;;;;;;;11.23;5.00;;;22.80;60.80;;;;;;5055476;28;20251;-83
2022/11/01 11:45:28;;;;;;;13.20;5.18;;;22.80;60.50;;;;;;5049432;28;20254;-84
2022/11/01 11:47:57;;;;;;;13.52;5.88;;;22.80;60.70;;;;;;5050764;28;20244;-85
2022/11/01 11:50:33;;;;;;;13.25;5.88;;;22.90;60.10;;;;;;5048726;28;20206;-84
2022/11/01 11:53:07;;;;;;;11.80;5.57;;;22.90;60.30;;;;;;5043324;28;20262;-86
2022/11/01 11:55:40;;;;;;;10.38;5.20;;;23.00;60.20;;;;;;5041424;28;20203;-85
2022/11/01 11:58:22;;;;;;;12.70;4.93;;;23.00;60.60;;;;;;5047495;28;20210;-85
2022/11/01 12:00:58;;;;;;;17.17;5.40;;;23.00;59.90;;;;;;5046184;28;20545;-83
2022/11/01 12:03:26;;;;;;;13.82;5.20;;;23.00;59.50;;;;;;5049503;28;20234;-84
2022/11/01 12:05:59;;;;;;;14.52;5.80;;;23.10;59.80;;;;;;5053793;28;20243;-82
2022/11/01 12:08:48;;;;;;;10.50;5.57;;;23.20;60.00;;;;;;5040296;28;20192;-84
2022/11/01 12:11:17;;;;;;;13.48;5.68;;;23.20;59.60;;;;;;5042770;28;20301;-83
2022/11/01 12:13:59;;;;;;;9.00;5.15;;;23.20;59.70;;;;;;5049792;28;20222;-81
2022/11/01 12:16:27;;;;;;;10.20;5.00;;;23.30;60.00;;;;;;5049366;28;20569;-83
2022/11/01 12:19:02;;;;;;;15.82;5.05;;;23.30;60.10;;;;;;5048479;28;20224;-85
2022/11/01 12:21:35;;;;;;;14.32;5.07;;;23.40;59.90;;;;;;5048041;28;20195;-83
2022/11/01 12:24:14;;;;;;;14.93;5.15;;;23.50;59.50;;;;;;5046820;28;20191;-80
2022/11/01 12:26:44;;;;;;;14.55;4.93;;;23.50;59.20;;;;;;5050973;28;20195;-83
2022/11/01 12:29:25;;;;;;;9.68;5.13;;;23.50;59.30;;;;;;5048101;28;20199;-81
2022/11/01 12:31:55;;;;;;;17.58;5.25;;;23.60;59.20;;;;;;5047975;28;20194;-82
2022/11/01 12:34:26;;;;;;;12.95;5.38;;;23.60;59.40;;;;;;5051366;28;20268;-83
2022/11/01 12:36:58;;;;;;;8.90;5.28;;;23.60;59.10;;;;;;5040794;28;20222;-85
2022/11/01 12:39:43;;;;;;;17.40;5.13;;;23.70;59.20;;;;;;5048049;28;20265;-82
2022/11/01 12:42:19;;;;;;;16.25;4.93;;;23.70;58.90;;;;;;5041385;28;20655;-81
2022/11/01 12:44:51;;;;;;;9.32;4.53;;;23.70;59.10;;;;;;5049483;28;20257;-81
2022/11/01 12:47:27;;;;;;;8.50;4.80;;;23.80;59.30;;;;;;5049476;28;20494;-83
2022/11/01 12:50:00;;;;;;;8.55;5.22;;;23.80;59.20;;;;;;5045748;28;20234;-81
2022/11/01 12:52:36;;;;;;;11.23;4.82;;;23.80;59.00;;;;;;5044092;28;20776;-81
2022/11/01 12:55:16;;;;;;;8.90;4.25;;;24.00;58.60;;;;;;5041788;28;20613;-84
2022/11/01 12:57:51;;;;;;;11.43;4.60;;;24.10;58.90;;;;;;5050412;28;20191;-80
2022/11/01 13:00:20;;;;;;;13.88;4.65;;;24.10;58.60;;;;;;5051076;28;20248;-80
2022/11/01 13:02:58;;;;;;;11.73;4.28;;;24.40;59.30;;;;;;5051951;28;20256;-80
2022/11/01 13:40:59;;;;;;;10.23;4.60;;;24.00;57.90;;;;;;5037232;28;20749;-78
2022/11/01 13:43:35;;;;;;;8.73;4.53;;;24.70;56.80;;;;;;5037490;28;20613;-75
2022/11/01 13:46:33;;;;;;;11.05;5.05;;;24.60;57.10;;;;;;5033327;28;20209;-76